FXMM/MSU METAR and TAF weather

Enter ICAO airport designator
Station Type Date Time Source
FXMM METAR 2020/06/07 06:00 UTC NOAA

FXMM 070600Z 08003KT CAVOK 04/00 Q1030 NOSIG


Station Type Date Time Source
FXMM Decoded METAR 2020/06/07 06:00 UTC NOAA

Maseru / Moshoeshoe, Lesotho (FXMM) 29-27S 027-33E
Jun 07, 2020 - 02:00 AM EDT / 2020.06.07 0600 UTC
Wind: from the E (080 degrees) at 3 MPH (3 KT):0
Visibility: greater than 7 mile(s):0
Temperature: 39 F (4 C)
Dew Point: 32 F (0 C)
Relative Humidity: 75%
Pressure (altimeter): 30.42 in. Hg (1030 hPa)
ob: FXMM 070600Z 08003KT CAVOK 04/00 Q1030 NOSIG
cycle: 6

Station Type Date Time Source
FXMM TAF 2020/03/16 06:37 UTC NOAA

TAF FXMM 160400Z 1606/1706 00000KT 9999 FEW035 TX24/1612Z TN12/1703Z
BECMG 1608/1610 30010KT
BECMG 1612/1614 FEW035CB PROB30
TEMPO 1615/1618 4000 TSRA
BECMG 1620/1624 00000KT CAVOK

Example: see airport list